createdAt,value
2018-11-02T00:02:24.364Z,98961.14
2018-11-02T00:04:54.807Z,98958.66
2018-11-02T00:07:42.009Z,98964.76
2018-11-02T00:10:27.431Z,98957.45
2018-11-02T00:12:58.619Z,98955.10
2018-11-02T00:15:29.373Z,98952.59
2018-11-02T00:17:59.953Z,98961.89
2018-11-02T00:20:30.513Z,98958.78
2018-11-02T00:23:00.985Z,98953.92
2018-11-02T00:25:32.267Z,98947.58
2018-11-02T00:28:02.714Z,98959.72
2018-11-02T00:30:33.229Z,98958.96
2018-11-02T00:33:03.885Z,98955.82
2018-11-02T00:35:34.670Z,98963.38
2018-11-02T00:38:05.154Z,98954.13
2018-11-02T00:40:35.576Z,98952.98
2018-11-02T00:43:06.228Z,98952.59
2018-11-02T00:45:36.680Z,98948.37
2018-11-02T00:48:07.353Z,98953.74
2018-11-02T00:50:37.766Z,98957.87
2018-11-02T00:53:08.269Z,98966.99
2018-11-02T00:55:38.966Z,98958.54
2018-11-02T00:58:09.469Z,98955.28
2018-11-02T01:00:39.976Z,98950.91
2018-11-02T01:03:10.405Z,98956.70
2018-11-02T01:05:40.880Z,98946.31
2018-11-02T01:08:11.287Z,98964.70
2018-11-02T01:10:41.796Z,98953.80
2018-11-02T01:13:12.264Z,98953.74
2018-11-02T01:15:42.825Z,98966.33
2018-11-02T01:18:14.506Z,98964.58
2018-11-02T01:20:44.987Z,98974.88
2018-11-02T01:23:15.583Z,98974.33
2018-11-02T01:25:46.105Z,98971.98
2018-11-02T01:28:16.714Z,98965.97
2018-11-02T01:30:47.239Z,98967.18
2018-11-02T01:33:17.986Z,98961.98
2018-11-02T01:35:48.627Z,98955.04
2018-11-02T01:38:20.012Z,98961.14
2018-11-02T01:40:50.499Z,98957.16
2018-11-02T01:43:21.026Z,98950.84
2018-11-02T01:45:52.033Z,98946.77
2018-11-02T01:48:23.013Z,98945.71
2018-11-02T01:50:53.812Z,98944.81
2018-11-02T01:53:24.253Z,98943.27
2018-11-02T01:55:55.097Z,98933.67
2018-11-02T01:58:25.515Z,98925.09
2018-11-02T02:00:55.974Z,98927.09
2018-11-02T02:03:26.587Z,98929.98
2018-11-02T02:05:57.096Z,98933.73
2018-11-02T02:08:27.642Z,98928.59
2018-11-02T02:10:58.192Z,98932.03
2018-11-02T02:13:28.740Z,98933.67
2018-11-02T02:15:59.480Z,98937.86
2018-11-02T02:18:29.962Z,98935.63
2018-11-02T02:21:00.916Z,98941.13
2018-11-02T02:23:31.481Z,98933.24
2018-11-02T02:26:02.225Z,98931.59
2018-11-02T02:28:33.174Z,98935.48
2018-11-02T02:31:04.941Z,98937.68
2018-11-02T02:33:35.462Z,98939.83
2018-11-02T02:36:05.892Z,98951.30
2018-11-02T02:38:36.401Z,98942.97
2018-11-02T02:41:06.976Z,98947.25
2018-11-02T02:43:37.476Z,98937.47
2018-11-02T02:46:08.052Z,98933.03
2018-11-02T02:48:38.659Z,98928.38
2018-11-02T02:51:09.139Z,98921.44
2018-11-02T02:53:39.576Z,98937.17
2018-11-02T02:56:10.187Z,98943.96
2018-11-02T02:58:40.899Z,98946.22
2018-11-02T03:01:11.373Z,98943.17
2018-11-02T03:03:42.985Z,98943.59
2018-11-02T03:06:13.480Z,98954.65
2018-11-02T03:08:43.884Z,98957.25
2018-11-02T03:11:14.503Z,98970.86
2018-11-02T03:13:44.845Z,98957.64
2018-11-02T03:16:15.598Z,98956.79
2018-11-02T03:18:46.088Z,98954.80
2018-11-02T03:21:16.714Z,98955.59
2018-11-02T03:23:47.250Z,98962.67
2018-11-02T03:26:17.752Z,98975.29
2018-11-02T03:28:48.379Z,98981.24
2018-11-02T03:31:18.968Z,98991.30
2018-11-02T03:33:49.447Z,98985.70
2018-11-02T03:36:20.054Z,98979.86
2018-11-02T03:38:51.580Z,98963.83
2018-11-02T03:41:22.130Z,98965.97
2018-11-02T03:43:52.696Z,98961.89
2018-11-02T03:46:23.174Z,98970.46
2018-11-02T03:48:53.755Z,98975.50
2018-11-02T03:51:24.581Z,98983.36
2018-11-02T03:53:55.174Z,98975.72
2018-11-02T03:56:26.405Z,98974.66
2018-11-02T03:58:56.909Z,98972.67
2018-11-02T04:01:27.363Z,98979.52
2018-11-02T04:03:58.224Z,98976.17
2018-11-02T04:06:28.739Z,98966.39
2018-11-02T04:08:59.163Z,98965.21
2018-11-02T04:11:29.704Z,98971.40
2018-11-02T04:14:00.153Z,98976.36
2018-11-02T04:16:31.098Z,98980.97
2018-11-02T04:19:01.651Z,98970.28
2018-11-02T04:21:36.167Z,98976.05
2018-11-02T04:24:06.838Z,98982.00
2018-11-02T04:26:37.546Z,98988.61
2018-11-02T04:29:08.134Z,98990.00
2018-11-02T04:31:38.609Z,98983.36
2018-11-02T04:36:48.334Z,98980.45
2018-11-02T04:39:18.896Z,98977.56
2018-11-02T04:41:49.472Z,98970.77
2018-11-02T04:44:19.946Z,98973.48
2018-11-02T04:46:50.536Z,98972.82
2018-11-02T04:49:20.999Z,98981.45
2018-11-02T04:51:51.502Z,98980.70
2018-11-02T04:54:22.047Z,98987.24
2018-11-02T04:56:52.448Z,98988.09
2018-11-02T04:59:23.021Z,98990.36
2018-11-02T05:01:53.471Z,98998.23
2018-11-02T05:04:24.741Z,98997.78
2018-11-02T05:06:55.162Z,99002.44
2018-11-02T05:09:25.738Z,98995.11
2018-11-02T05:11:56.243Z,98989.61
2018-11-02T05:14:26.942Z,98995.64
2018-11-02T05:16:57.591Z,98993.74
2018-11-02T05:19:28.198Z,98998.78
2018-11-02T05:21:58.921Z,98995.73
2018-11-02T05:24:29.572Z,98999.97
2018-11-02T05:27:00.078Z,98998.03
2018-11-02T05:29:30.597Z,99005.38
2018-11-02T05:32:01.370Z,99014.70
2018-11-02T05:34:32.395Z,99013.70
2018-11-02T05:37:02.856Z,99023.88
2018-11-02T05:39:33.340Z,99039.88
2018-11-02T05:42:03.818Z,99045.07
2018-11-02T05:44:35.818Z,99048.52
2018-11-02T05:47:06.666Z,99033.93
2018-11-02T05:49:37.164Z,99030.47
2018-11-02T05:52:07.706Z,99031.22
2018-11-02T05:54:38.461Z,99036.80
2018-11-02T05:57:09.139Z,99040.43
2018-11-02T05:59:39.584Z,99044.58
2018-11-02T06:02:10.442Z,99049.52
2018-11-02T06:04:40.940Z,99045.56
2018-11-02T06:07:11.481Z,99049.38
2018-11-02T06:09:42.091Z,99051.34
2018-11-02T06:12:12.587Z,99049.05
2018-11-02T06:14:43.245Z,99035.63
2018-11-02T06:17:13.592Z,99040.80
2018-11-02T06:19:44.129Z,99040.56
2018-11-02T06:22:14.606Z,99038.72
2018-11-02T06:24:45.180Z,99037.51
2018-11-02T06:27:15.889Z,99035.36
2018-11-02T06:29:46.717Z,99035.06
2018-11-02T06:32:17.268Z,99036.51
2018-11-02T06:34:48.101Z,99041.41
2018-11-02T06:37:18.598Z,99036.57
2018-11-02T06:39:49.618Z,99038.38
2018-11-02T06:42:20.437Z,99043.03
2018-11-02T06:44:50.986Z,99036.75
2018-11-02T06:47:21.552Z,99034.54
2018-11-02T06:49:52.060Z,99048.20
2018-11-02T06:52:23.126Z,99045.09
2018-11-02T06:54:53.878Z,99040.73
2018-11-02T06:57:24.426Z,99038.98
2018-11-02T06:59:55.186Z,99035.75
2018-11-02T07:02:25.446Z,99026.02
2018-11-02T07:04:55.995Z,99020.61
2018-11-02T07:07:26.458Z,99025.20
2018-11-02T07:09:57.810Z,99013.72
2018-11-02T07:12:28.314Z,99019.73
2018-11-02T07:14:58.760Z,99009.19
2018-11-02T07:17:29.183Z,99014.83
2018-11-02T07:19:59.601Z,99012.02
2018-11-02T07:22:30.144Z,99003.14
2018-11-02T07:25:00.784Z,99007.69
2018-11-02T07:27:32.334Z,98988.41
2018-11-02T07:30:02.930Z,99012.47
2018-11-02T07:32:33.446Z,99013.41
2018-11-02T07:35:04.020Z,99013.22
2018-11-02T07:37:34.529Z,99009.41
2018-11-02T07:40:05.859Z,99013.05
2018-11-02T07:42:36.369Z,99015.00
2018-11-02T07:45:07.522Z,99015.84
2018-11-02T07:47:38.136Z,99019.13
2018-11-02T07:50:10.853Z,99027.66
2018-11-02T07:52:41.343Z,99026.16
2018-11-02T07:55:13.939Z,99035.44
2018-11-02T07:57:44.422Z,99030.16
2018-11-02T08:00:16.428Z,99033.77
2018-11-02T08:02:47.770Z,99026.98
2018-11-02T08:05:18.188Z,99016.34
2018-11-02T08:07:48.745Z,99011.11
2018-11-02T08:10:19.352Z,99016.44
2018-11-02T08:12:49.849Z,99018.81
2018-11-02T08:15:20.306Z,99021.16
2018-11-02T08:17:50.839Z,99029.63
2018-11-02T08:20:21.394Z,99030.94
2018-11-02T08:22:51.869Z,99037.47
2018-11-02T08:25:22.409Z,99034.11
2018-11-02T08:27:52.833Z,99027.34
2018-11-02T08:30:24.104Z,99028.30
2018-11-02T08:32:54.502Z,99021.68
2018-11-02T08:35:25.287Z,99024.48
2018-11-02T08:37:55.780Z,99015.93
2018-11-02T08:40:27.279Z,99022.44
2018-11-02T08:42:57.747Z,99025.05
2018-11-02T08:45:28.321Z,99028.97
2018-11-02T08:47:58.723Z,99031.20
2018-11-02T08:50:29.128Z,99025.33
2018-11-02T08:52:59.573Z,99021.42
2018-11-02T08:55:30.247Z,99020.49
2018-11-02T08:58:01.018Z,99014.34
2018-11-02T09:00:31.325Z,99006.25
2018-11-02T09:03:01.984Z,99009.23
2018-11-02T09:05:32.514Z,99008.49
2018-11-02T09:08:02.986Z,99007.36
2018-11-02T09:15:34.963Z,98996.58
2018-11-02T09:18:05.381Z,98992.86
2018-11-02T09:20:36.025Z,98993.78
2018-11-02T09:23:06.652Z,98992.49
2018-11-02T09:25:37.121Z,98986.91
2018-11-02T09:28:07.955Z,98987.58
2018-11-02T09:30:38.405Z,98984.48
2018-11-02T09:33:09.140Z,98985.70
2018-11-02T09:35:39.608Z,98977.98
2018-11-02T09:38:10.170Z,98930.91
2018-11-02T09:40:40.853Z,98972.87
2018-11-02T09:43:11.381Z,98970.72
2018-11-02T09:45:42.495Z,98969.99
2018-11-02T09:48:13.021Z,98967.95
2018-11-02T09:50:43.575Z,98970.16
2018-11-02T09:53:14.234Z,98958.81
2018-11-02T09:55:44.777Z,98968.12
2018-11-02T09:58:15.367Z,98963.86
2018-11-02T10:00:45.947Z,98967.66
2018-11-02T10:03:16.555Z,98972.97
2018-11-02T10:05:47.211Z,98979.47
2018-11-02T10:08:17.815Z,98971.84
2018-11-02T10:10:48.358Z,98963.09
2018-11-02T10:13:19.132Z,98962.91
2018-11-02T10:15:49.678Z,98952.46
2018-11-02T10:18:20.281Z,98947.07
2018-11-02T10:20:50.894Z,98947.35
2018-11-02T10:23:21.361Z,98935.94
2018-11-02T10:25:52.170Z,98933.94
2018-11-02T10:28:22.975Z,98933.41
2018-11-02T10:30:53.532Z,98929.75
2018-11-02T10:33:24.328Z,98926.39
2018-11-02T10:35:55.693Z,98925.55
2018-11-02T10:38:26.297Z,98923.44
2018-11-02T10:40:58.449Z,98924.75
2018-11-02T10:43:31.384Z,98911.51
2018-11-02T10:46:03.012Z,98910.03
2018-11-02T10:48:33.564Z,98905.31
2018-11-02T10:51:04.049Z,98905.38
2018-11-02T10:53:34.566Z,98900.33
2018-11-02T10:56:05.178Z,98900.69
2018-11-02T10:58:35.749Z,98901.98
2018-11-02T11:01:11.440Z,98894.21
2018-11-02T11:03:41.892Z,98903.73
2018-11-02T11:06:12.412Z,98901.45
2018-11-02T11:08:42.953Z,98890.47
2018-11-02T11:11:13.488Z,98891.31
2018-11-02T11:13:44.367Z,98888.53
2018-11-02T11:16:14.621Z,98889.55
2018-11-02T11:18:46.149Z,98886.31
2018-11-02T11:21:16.662Z,98877.02
2018-11-02T11:23:47.175Z,98876.45
2018-11-02T11:26:17.647Z,98877.76
2018-11-02T11:28:48.139Z,98873.01
2018-11-02T11:31:19.160Z,98877.09
2018-11-02T11:33:50.005Z,98868.53
2018-11-02T11:36:20.642Z,98874.03
2018-11-02T11:38:51.068Z,98878.68
2018-11-02T11:41:21.666Z,98876.25
2018-11-02T11:43:52.184Z,98872.80
2018-11-02T11:46:22.626Z,98872.17
2018-11-02T11:48:53.239Z,98867.80
2018-11-02T11:51:23.967Z,98865.09
2018-11-02T11:53:54.849Z,98863.59
2018-11-02T11:56:25.549Z,98862.67
2018-11-02T11:58:56.116Z,98873.65
2018-11-02T12:01:26.680Z,98871.61
2018-11-02T12:03:57.205Z,98867.52
2018-11-02T12:06:28.005Z,98874.00
2018-11-02T12:08:58.528Z,98871.25
2018-11-02T12:11:28.949Z,98871.42
2018-11-02T12:13:59.929Z,98868.72
2018-11-02T12:16:30.922Z,98870.69
2018-11-02T12:19:01.410Z,98866.78
2018-11-02T12:21:31.991Z,98866.98
2018-11-02T12:24:02.549Z,98862.33
2018-11-02T12:26:33.022Z,98854.33
2018-11-02T12:29:03.625Z,98858.41
2018-11-02T12:31:34.174Z,98858.80
2018-11-02T12:34:04.915Z,98859.36
2018-11-02T12:36:35.410Z,98862.14
2018-11-02T12:39:07.618Z,98865.48
2018-11-02T12:41:38.480Z,98868.28
2018-11-02T12:44:08.994Z,98862.23
2018-11-02T12:46:39.529Z,98870.32
2018-11-02T12:49:10.490Z,98863.56
2018-11-02T12:51:40.735Z,98858.60
2018-11-02T12:54:11.585Z,98860.09
2018-11-02T12:56:42.101Z,98856.75
2018-11-02T12:59:12.700Z,98854.53
2018-11-02T13:01:43.146Z,98846.13
2018-11-02T13:04:13.730Z,98847.72
2018-11-02T13:06:44.363Z,98848.02
2018-11-02T13:09:14.881Z,98848.86
2018-11-02T13:11:45.421Z,98849.77
2018-11-02T13:14:16.171Z,98849.42
2018-11-02T13:16:46.785Z,98844.77
2018-11-02T13:19:17.221Z,98846.34
2018-11-02T13:21:47.870Z,98846.12
2018-11-02T13:24:18.397Z,98849.65
2018-11-02T13:26:48.908Z,98847.80
2018-11-02T13:29:19.608Z,98855.78
2018-11-02T13:31:50.233Z,98861.59
2018-11-02T13:34:20.742Z,98857.14
2018-11-02T13:36:51.304Z,98850.05
2018-11-02T13:39:21.860Z,98854.68
2018-11-02T13:41:52.477Z,98846.11
2018-11-02T13:44:23.041Z,98852.53
2018-11-02T13:46:53.933Z,98853.45
2018-11-02T13:49:24.430Z,98856.70
2018-11-02T13:51:54.984Z,98857.11
2018-11-02T13:54:26.481Z,98853.28
2018-11-02T13:56:57.110Z,98857.04
2018-11-02T13:59:27.693Z,98861.33
2018-11-02T14:01:58.201Z,98853.44
2018-11-02T14:04:28.748Z,98859.34
2018-11-02T14:06:59.280Z,98857.79
2018-11-02T14:09:29.841Z,98863.33
2018-11-02T14:12:00.371Z,98867.88
2018-11-02T14:14:30.970Z,98874.27
2018-11-02T14:17:01.446Z,98875.31
2018-11-02T14:19:32.197Z,98878.51
2018-11-02T14:22:02.728Z,98873.05
2018-11-02T14:24:33.531Z,98870.12
2018-11-02T14:27:04.218Z,98873.11
2018-11-02T14:29:34.970Z,98873.67
2018-11-02T14:32:05.512Z,98872.37
2018-11-02T14:34:36.106Z,98872.08
2018-11-02T14:37:06.844Z,98868.57
2018-11-02T14:39:37.407Z,98867.23
2018-11-02T14:42:07.888Z,98873.56
2018-11-02T14:44:38.684Z,98871.13
2018-11-02T14:47:09.249Z,98867.38
2018-11-02T14:49:39.759Z,98868.08
2018-11-02T14:52:10.293Z,98863.44
2018-11-02T14:54:41.032Z,98866.63
2018-11-02T14:57:11.562Z,98860.05
2018-11-02T14:59:42.120Z,98862.58
2018-11-02T15:02:12.627Z,98865.33
2018-11-02T15:04:43.140Z,98869.81
2018-11-02T15:07:13.904Z,98872.37
2018-11-02T15:09:44.411Z,98866.06
2018-11-02T15:12:14.941Z,98875.92
2018-11-02T15:14:45.890Z,98871.13
2018-11-02T15:30:10.317Z,98870.06
2018-11-02T15:32:40.967Z,98890.36
2018-11-02T15:35:12.224Z,98890.69
2018-11-02T15:37:43.507Z,98895.19
2018-11-02T15:40:14.528Z,98904.60
2018-11-02T15:45:26.008Z,98895.31
2018-11-02T15:47:56.560Z,98899.53
2018-11-02T15:50:27.057Z,98910.77
2018-11-02T15:52:57.558Z,98917.48
2018-11-02T15:55:28.060Z,98917.77
2018-11-02T15:57:58.548Z,98928.63
2018-11-02T16:00:29.183Z,98921.83
2018-11-02T16:05:39.068Z,98928.69
2018-11-02T16:08:09.657Z,98932.34
2018-11-02T16:13:19.156Z,98940.30
2018-11-02T16:18:28.982Z,98947.37
2018-11-02T16:20:59.974Z,98939.38
2018-11-02T16:23:30.693Z,98949.66
2018-11-02T16:26:02.101Z,98952.02
2018-11-02T16:28:32.766Z,98955.81
2018-11-02T16:31:03.328Z,98950.84
2018-11-02T16:33:34.010Z,98954.22
2018-11-02T16:36:04.786Z,98949.71
2018-11-02T16:38:35.390Z,98954.29
2018-11-02T16:41:06.555Z,98948.92
2018-11-02T16:43:37.370Z,98950.54
2018-11-02T16:46:07.946Z,98950.48
2018-11-02T16:48:38.709Z,98947.73
2018-11-02T16:51:09.296Z,98957.12
2018-11-02T16:53:39.786Z,98950.09
2018-11-02T16:56:10.412Z,98941.78
2018-11-02T16:58:40.878Z,98956.97
2018-11-02T17:01:11.337Z,98962.97
2018-11-02T17:03:41.889Z,98963.37
2018-11-02T17:06:12.406Z,98963.82
2018-11-02T17:08:42.916Z,98956.22
2018-11-02T17:11:13.390Z,98956.03
2018-11-02T17:13:43.961Z,98960.79
2018-11-02T17:16:14.662Z,98959.71
2018-11-02T17:18:45.205Z,98961.45
2018-11-02T17:21:15.695Z,98962.54
2018-11-02T17:23:46.252Z,98964.81
2018-11-02T17:26:16.810Z,98957.44
2018-11-02T17:28:47.502Z,98962.32
2018-11-02T17:31:18.164Z,98961.88
2018-11-02T17:33:48.722Z,98957.67
2018-11-02T17:36:19.577Z,98955.70
2018-11-02T17:38:50.004Z,98962.09
2018-11-02T17:41:20.602Z,98946.54
2018-11-02T17:43:51.309Z,98962.94
2018-11-02T17:46:21.726Z,98948.38
2018-11-02T17:48:52.228Z,98952.88
2018-11-02T17:51:22.700Z,98955.20
2018-11-02T17:53:53.162Z,98950.86
2018-11-02T17:56:24.655Z,98942.95
2018-11-02T17:58:55.168Z,98940.59
2018-11-02T18:01:25.801Z,98941.34
2018-11-02T18:03:56.683Z,98951.71
2018-11-02T18:06:27.108Z,98947.19
2018-11-02T18:08:57.646Z,98956.66
2018-11-02T18:11:28.227Z,98952.77
2018-11-02T18:13:58.765Z,98948.48
2018-11-02T18:16:29.242Z,98949.86
2018-11-02T18:18:59.769Z,98953.60
2018-11-02T18:21:30.370Z,98944.75
2018-11-02T18:24:00.949Z,98949.73
2018-11-02T18:26:31.373Z,98947.80
2018-11-02T18:29:01.894Z,98951.80
2018-11-02T18:31:32.559Z,98951.48
2018-11-02T18:34:03.862Z,98962.52
2018-11-02T18:36:34.583Z,98960.38
2018-11-02T18:39:08.150Z,98964.88
2018-11-02T18:41:38.631Z,98966.48
2018-11-02T18:44:09.385Z,98961.12
2018-11-02T18:46:40.437Z,98972.34
2018-11-02T18:49:11.469Z,98969.61
2018-11-02T18:51:42.224Z,98964.95
2018-11-02T18:54:12.759Z,98966.70
2018-11-02T18:56:43.239Z,98964.33
2018-11-02T18:59:13.841Z,98968.52
2018-11-02T19:01:44.332Z,98970.43
2018-11-02T19:04:14.786Z,98974.02
2018-11-02T19:06:45.305Z,98981.56
2018-11-02T19:09:15.678Z,98976.38
2018-11-02T19:11:46.089Z,98970.43
2018-11-02T19:14:16.501Z,98963.48
2018-11-02T19:16:46.928Z,98964.98
2018-11-02T19:19:17.455Z,98968.34
2018-11-02T19:21:47.929Z,98967.98
2018-11-02T19:24:18.503Z,98969.64
2018-11-02T19:26:49.005Z,98977.69
2018-11-02T19:29:19.956Z,98972.87
2018-11-02T19:31:50.405Z,98977.42
2018-11-02T19:34:21.035Z,98977.67
2018-11-02T19:36:51.656Z,98976.11
2018-11-02T19:39:22.255Z,98966.89
2018-11-02T19:41:52.743Z,98981.78
2018-11-02T19:44:23.380Z,98979.33
2018-11-02T19:46:53.887Z,98979.87
2018-11-02T19:49:24.460Z,98977.73
2018-11-02T19:51:55.087Z,98978.51
2018-11-02T19:54:25.650Z,98981.32
2018-11-02T19:56:56.422Z,98983.64
2018-11-02T19:59:27.125Z,98984.72
2018-11-02T20:01:57.713Z,98980.83
2018-11-02T20:04:28.293Z,98980.66
2018-11-02T20:06:59.086Z,98975.98
2018-11-02T20:09:29.803Z,98972.48
2018-11-02T20:12:00.149Z,98978.22
2018-11-02T20:14:30.611Z,98979.13
2018-11-02T20:17:01.256Z,98978.99
2018-11-02T20:19:31.775Z,98980.13
2018-11-02T20:22:02.431Z,98975.10
2018-11-02T20:24:33.793Z,98973.10
2018-11-02T20:27:04.270Z,98965.38
2018-11-02T20:29:34.737Z,98967.05
2018-11-02T20:32:05.367Z,98962.64
2018-11-02T20:34:36.023Z,98967.11
2018-11-02T20:37:06.821Z,98956.73
2018-11-02T20:39:37.403Z,98958.23
2018-11-02T20:42:08.296Z,98955.43
2018-11-02T20:44:38.869Z,98947.13
2018-11-02T20:47:09.377Z,98950.99
2018-11-02T20:49:41.374Z,98944.83
2018-11-02T20:52:14.782Z,98948.09
2018-11-02T20:54:45.216Z,98944.41
2018-11-02T20:57:17.025Z,98951.90
2018-11-02T20:59:47.585Z,98954.19
2018-11-02T21:02:18.100Z,98956.34
2018-11-02T21:04:48.658Z,98958.42
2018-11-02T21:07:19.238Z,98955.43
2018-11-02T21:09:49.875Z,98955.76
2018-11-02T21:12:20.404Z,98955.76
2018-11-02T21:14:51.078Z,98957.36
2018-11-02T21:17:21.643Z,98955.76
2018-11-02T21:19:52.226Z,98955.37
2018-11-02T21:22:22.727Z,98953.04
2018-11-02T21:24:53.198Z,98960.34
2018-11-02T21:27:23.750Z,98955.03
2018-11-02T21:29:54.312Z,98953.97
2018-11-02T21:32:24.875Z,98953.64
2018-11-02T21:34:55.425Z,98957.69
2018-11-02T21:37:26.118Z,98958.50
2018-11-02T21:39:56.637Z,98954.79
2018-11-02T21:42:27.197Z,98958.68
2018-11-02T21:44:57.861Z,98956.39
2018-11-02T21:47:28.428Z,98957.91
2018-11-02T21:49:58.953Z,98953.62
2018-11-02T21:52:29.459Z,98952.53
2018-11-02T21:54:59.931Z,98959.05
2018-11-02T21:57:30.880Z,98955.37
2018-11-02T22:00:01.384Z,98957.92
2018-11-02T22:02:32.182Z,98951.05
2018-11-02T22:05:02.701Z,98949.59
2018-11-02T22:07:33.157Z,98948.09
2018-11-02T22:10:03.653Z,98939.77
2018-11-02T22:12:34.092Z,98950.38
2018-11-02T22:15:04.742Z,98949.17
2018-11-02T22:17:35.570Z,98949.86
2018-11-02T22:20:06.780Z,98943.98
2018-11-02T22:22:37.188Z,98948.77
2018-11-02T22:25:08.612Z,98949.53
2018-11-02T22:27:39.074Z,98941.59
2018-11-02T22:30:11.730Z,98941.52
2018-11-02T22:32:42.180Z,98940.13
2018-11-02T22:35:13.174Z,98940.66
2018-11-02T22:37:43.944Z,98937.92
2018-11-02T22:40:15.194Z,98940.00
2018-11-02T22:42:45.842Z,98895.20
2018-11-02T22:45:16.717Z,98934.20
2018-11-02T22:47:51.964Z,98935.95
2018-11-02T22:50:22.486Z,98928.95
2018-11-02T22:52:53.066Z,98924.97
2018-11-02T22:55:23.710Z,98927.59
2018-11-02T22:57:54.533Z,98918.51
2018-11-02T23:00:25.080Z,98924.27
2018-11-02T23:02:55.886Z,98916.06
2018-11-02T23:05:26.409Z,98912.94
2018-11-02T23:07:56.921Z,98918.23
2018-11-02T23:10:27.404Z,98924.05
2018-11-02T23:12:57.969Z,98921.06
2018-11-02T23:15:28.476Z,98921.23
2018-11-02T23:17:59.193Z,98925.13
2018-11-02T23:20:29.736Z,98920.16
2018-11-02T23:23:00.232Z,98927.09
2018-11-02T23:25:30.882Z,98926.77
2018-11-02T23:28:01.371Z,98926.47
2018-11-02T23:30:31.907Z,98919.63
2018-11-02T23:33:02.457Z,98924.27
2018-11-02T23:35:33.098Z,98928.25
2018-11-02T23:38:04.587Z,98926.14
2018-11-02T23:40:35.113Z,98919.64
2018-11-02T23:43:05.605Z,98922.63
2018-11-02T23:45:36.078Z,98920.06
2018-11-02T23:48:11.957Z,98915.64
2018-11-02T23:50:42.529Z,98921.14
2018-11-02T23:53:13.166Z,98912.42
2018-11-02T23:55:43.988Z,98906.66
2018-11-02T23:58:15.940Z,98912.06
